Time;durP1;ratioP1;P1;durP2;ratioP2;P2;SDS_P1;SDS_P2;PMS_P1;PMS_P2;Temp;Humidity;BMP_temperature;BMP_pressure;BME280_temperature;BME280_humidity;BME280_pressure;Samples;Min_cycle;Max_cycle;Signal;HPM_P1;HPM_P2
2023/10/28 00:02:25;;;;;;;13.20;12.80;;;12.60;99.90;;;;;;5031993;28;20216;-62
2023/10/28 00:04:52;;;;;;;12.90;12.50;;;12.60;99.90;;;;;;5033839;28;20715;-60
2023/10/28 00:07:19;;;;;;;14.47;13.97;;;12.60;99.90;;;;;;5034452;28;20213;-61
2023/10/28 00:09:45;;;;;;;14.27;13.77;;;12.60;99.90;;;;;;5045007;28;20212;-62
2023/10/28 00:12:14;;;;;;;14.43;13.93;;;12.60;99.90;;;;;;5049524;28;20214;-62
2023/10/28 00:14:41;;;;;;;16.17;15.67;;;12.60;99.90;;;;;;5049425;28;20204;-61
2023/10/28 00:17:07;;;;;;;16.43;15.90;;;12.60;99.90;;;;;;5049595;28;20208;-60
2023/10/28 00:19:34;;;;;;;16.47;15.87;;;12.60;99.90;;;;;;5039885;28;20212;-62
2023/10/28 00:22:00;;;;;;;17.33;16.73;;;12.60;99.90;;;;;;5037852;28;20208;-60
2023/10/28 00:24:27;;;;;;;16.90;16.30;;;12.70;99.90;;;;;;5039213;28;20240;-60
2023/10/28 00:26:54;;;;;;;17.40;16.80;;;12.70;99.90;;;;;;5037282;28;20223;-61
2023/10/28 00:29:22;;;;;;;17.20;16.60;;;12.70;99.90;;;;;;5034037;28;20216;-61
2023/10/28 00:31:50;;;;;;;17.17;16.57;;;12.70;99.90;;;;;;5033314;28;20624;-60
2023/10/28 00:34:17;;;;;;;17.27;16.67;;;12.70;99.90;;;;;;5033079;28;20228;-61
2023/10/28 00:36:44;;;;;;;16.43;15.90;;;12.70;99.90;;;;;;5033276;28;20254;-61
2023/10/28 00:39:11;;;;;;;16.17;15.67;;;12.70;99.90;;;;;;5033253;28;20232;-61
2023/10/28 00:41:38;;;;;;;16.20;15.70;;;12.70;99.90;;;;;;5032898;28;20208;-60
2023/10/28 00:44:05;;;;;;;16.87;16.27;;;12.70;99.90;;;;;;5032851;28;20240;-62
2023/10/28 00:46:33;;;;;;;17.07;16.47;;;12.70;99.90;;;;;;5032793;28;20678;-61
2023/10/28 00:49:00;;;;;;;16.53;15.93;;;12.70;99.90;;;;;;5033283;28;20213;-61
2023/10/28 00:51:28;;;;;;;17.33;16.73;;;12.80;99.90;;;;;;5032837;28;20630;-61
2023/10/28 00:53:56;;;;;;;15.63;15.13;;;12.80;99.90;;;;;;5033653;28;20232;-61
2023/10/28 00:56:23;;;;;;;16.03;15.43;;;12.70;99.90;;;;;;5035291;28;20578;-61
2023/10/28 00:58:51;;;;;;;16.30;15.70;;;12.80;99.90;;;;;;5034394;28;20300;-61
2023/10/28 01:01:18;;;;;;;17.20;16.60;;;12.80;99.90;;;;;;5033920;28;20718;-61
2023/10/28 01:03:46;;;;;;;16.27;15.73;;;12.70;99.90;;;;;;5032352;28;20252;-61
2023/10/28 01:06:13;;;;;;;16.60;16.00;;;12.70;99.90;;;;;;5032644;28;20216;-60
2023/10/28 01:08:40;;;;;;;16.07;15.53;;;12.80;99.90;;;;;;5032373;28;20216;-61
2023/10/28 01:11:07;;;;;;;16.93;16.33;;;12.80;99.90;;;;;;5032158;28;20204;-61
2023/10/28 01:13:33;;;;;;;16.27;15.70;;;12.80;99.90;;;;;;5032147;28;20233;-61
2023/10/28 01:16:01;;;;;;;16.40;15.83;;;12.80;99.90;;;;;;5032754;28;20212;-61
2023/10/28 01:18:27;;;;;;;17.40;16.80;;;12.80;99.90;;;;;;5032285;28;20208;-61
2023/10/28 01:20:55;;;;;;;15.70;15.20;;;12.80;99.90;;;;;;5032204;28;20628;-61
2023/10/28 01:23:23;;;;;;;16.73;16.13;;;12.70;99.90;;;;;;5031860;28;20232;-61
2023/10/28 01:25:50;;;;;;;17.23;16.63;;;12.70;99.90;;;;;;5032123;28;20248;-60
2023/10/28 01:28:18;;;;;;;15.80;15.20;;;12.70;99.90;;;;;;5031635;28;20212;-61
2023/10/28 01:30:44;;;;;;;17.50;16.90;;;12.70;99.90;;;;;;5032019;28;20208;-60
2023/10/28 01:33:11;;;;;;;16.93;16.33;;;12.70;99.90;;;;;;5031520;28;20335;-60
2023/10/28 01:35:39;;;;;;;16.63;16.03;;;12.70;99.90;;;;;;5031697;28;20201;-60
2023/10/28 01:38:05;;;;;;;16.67;16.07;;;12.70;99.90;;;;;;5032031;28;20220;-61
2023/10/28 01:40:34;;;;;;;16.07;15.50;;;12.70;99.90;;;;;;5030970;28;20215;-62
2023/10/28 01:43:01;;;;;;;16.80;16.20;;;12.70;99.90;;;;;;5031665;28;20260;-61
2023/10/28 01:45:28;;;;;;;16.30;15.70;;;12.70;99.90;;;;;;5031448;28;20243;-61
2023/10/28 01:47:55;;;;;;;17.23;16.63;;;12.70;99.90;;;;;;5032108;28;20233;-61
2023/10/28 01:50:22;;;;;;;15.53;15.03;;;12.80;99.90;;;;;;5031879;28;20240;-63
2023/10/28 01:52:49;;;;;;;16.25;15.65;;;12.80;99.90;;;;;;5031238;28;20762;-60
2023/10/28 01:55:15;;;;;;;17.63;17.03;;;12.80;99.90;;;;;;5031354;28;20216;-62
2023/10/28 01:57:44;;;;;;;17.90;17.30;;;12.80;99.90;;;;;;5031423;28;20653;-62
2023/10/28 02:00:13;;;;;;;17.40;16.80;;;12.80;99.90;;;;;;5031473;28;20216;-61
2023/10/28 02:02:41;;;;;;;21.33;20.53;;;12.90;99.90;;;;;;5031343;28;20244;-61
2023/10/28 02:05:09;;;;;;;16.37;15.77;;;12.90;99.90;;;;;;5031223;28;20260;-60
2023/10/28 02:07:35;;;;;;;16.30;15.70;;;12.90;99.90;;;;;;5031207;28;20208;-61
2023/10/28 02:10:02;;;;;;;16.67;16.07;;;12.90;99.90;;;;;;5030975;28;20220;-61
2023/10/28 02:12:29;;;;;;;15.73;15.13;;;12.90;99.90;;;;;;5030860;28;20216;-60
2023/10/28 02:14:57;;;;;;;16.17;15.57;;;12.90;99.90;;;;;;5031107;28;20699;-60
2023/10/28 02:17:23;;;;;;;16.17;15.57;;;12.90;99.90;;;;;;5031043;28;20239;-61
2023/10/28 02:19:50;;;;;;;15.37;14.77;;;12.90;99.90;;;;;;5030661;28;20263;-62
2023/10/28 02:22:17;;;;;;;16.70;16.10;;;12.90;99.90;;;;;;5030513;28;20212;-60
2023/10/28 02:24:43;;;;;;;16.53;15.93;;;12.90;99.90;;;;;;5029819;28;20239;-60
2023/10/28 02:27:10;;;;;;;15.63;15.13;;;12.90;99.90;;;;;;5030500;28;20212;-61
2023/10/28 02:29:37;;;;;;;16.17;15.57;;;12.90;99.90;;;;;;5030797;28;20220;-60
2023/10/28 02:32:06;;;;;;;15.98;15.38;;;12.90;99.90;;;;;;5029873;28;20709;-62
2023/10/28 02:34:33;;;;;;;15.73;15.13;;;12.90;99.90;;;;;;5029738;28;20239;-60
2023/10/28 02:36:59;;;;;;;15.33;14.80;;;12.80;99.90;;;;;;5026717;28;20216;-60
2023/10/28 02:39:27;;;;;;;15.87;15.30;;;12.90;99.90;;;;;;5030776;28;20570;-60
2023/10/28 02:41:53;;;;;;;15.47;14.97;;;12.90;99.90;;;;;;5030345;28;20212;-61
2023/10/28 02:44:20;;;;;;;16.00;15.47;;;12.90;99.90;;;;;;5025808;28;20304;-60
2023/10/28 02:46:48;;;;;;;16.53;15.93;;;12.90;99.90;;;;;;5039182;28;20276;-61
2023/10/28 02:49:16;;;;;;;16.10;15.50;;;13.00;99.90;;;;;;5036458;28;20243;-60
2023/10/28 02:51:43;;;;;;;15.97;15.40;;;12.90;99.90;;;;;;5032248;28;20532;-60
2023/10/28 02:54:09;;;;;;;15.20;14.70;;;13.00;99.90;;;;;;5039743;28;20228;-63
2023/10/28 02:56:36;;;;;;;15.77;15.17;;;12.90;99.90;;;;;;5040718;28;20204;-61
2023/10/28 02:59:05;;;;;;;15.90;15.33;;;12.90;99.90;;;;;;5038780;28;20237;-62
2023/10/28 03:01:31;;;;;;;16.03;15.43;;;12.90;99.90;;;;;;5031479;28;20679;-61
2023/10/28 03:03:58;;;;;;;15.80;15.30;;;12.90;99.90;;;;;;5031504;28;20612;-60
2023/10/28 03:06:26;;;;;;;15.70;15.20;;;12.90;99.90;;;;;;5031387;28;20236;-61
2023/10/28 03:08:53;;;;;;;16.63;16.03;;;12.90;99.90;;;;;;5031183;28;20208;-61
2023/10/28 03:11:19;;;;;;;15.97;15.37;;;12.90;99.90;;;;;;5030946;28;20311;-61
2023/10/28 03:13:46;;;;;;;15.50;15.00;;;12.90;99.90;;;;;;5031060;28;20236;-62
2023/10/28 03:16:13;;;;;;;15.43;14.83;;;12.90;99.90;;;;;;5031155;28;20205;-62
2023/10/28 03:18:40;;;;;;;15.53;14.93;;;12.90;99.90;;;;;;5030833;28;20215;-61
2023/10/28 03:21:07;;;;;;;16.10;15.50;;;13.00;99.90;;;;;;5030811;28;20243;-61
2023/10/28 03:23:35;;;;;;;15.73;15.23;;;13.00;99.90;;;;;;5030436;28;20698;-61
2023/10/28 03:26:02;;;;;;;15.40;14.90;;;12.90;99.90;;;;;;5027983;28;20236;-61
2023/10/28 03:28:29;;;;;;;15.43;14.93;;;13.00;99.90;;;;;;5027858;28;20561;-63
2023/10/28 03:30:56;;;;;;;14.90;14.40;;;13.00;99.90;;;;;;5031022;28;20616;-62
2023/10/28 03:33:23;;;;;;;15.23;14.70;;;13.00;99.90;;;;;;5030829;28;20240;-62
2023/10/28 03:35:49;;;;;;;15.13;14.53;;;13.00;99.90;;;;;;5032413;28;20212;-61
2023/10/28 03:38:16;;;;;;;14.40;13.90;;;13.00;99.90;;;;;;5034724;28;20208;-61
2023/10/28 03:40:44;;;;;;;15.67;15.07;;;13.00;99.90;;;;;;5035138;28;20216;-61
2023/10/28 03:43:11;;;;;;;14.47;13.97;;;13.00;99.90;;;;;;5034682;28;20744;-61
2023/10/28 03:45:38;;;;;;;15.23;14.73;;;12.90;99.90;;;;;;5034696;28;20232;-61
2023/10/28 03:48:05;;;;;;;15.37;14.87;;;12.90;99.90;;;;;;5034644;28;20278;-61
2023/10/28 03:50:32;;;;;;;16.07;15.47;;;12.90;99.90;;;;;;5034740;28;20220;-61
2023/10/28 03:52:58;;;;;;;15.70;15.10;;;12.80;99.90;;;;;;5034517;28;20260;-61
2023/10/28 03:55:25;;;;;;;15.80;15.23;;;12.80;99.90;;;;;;5034736;28;20211;-61
2023/10/28 03:57:53;;;;;;;15.50;15.00;;;12.80;99.90;;;;;;5034665;28;20219;-61
2023/10/28 04:00:20;;;;;;;16.20;15.60;;;12.80;99.90;;;;;;5034562;28;20655;-61
2023/10/28 04:02:47;;;;;;;16.30;15.70;;;12.80;99.90;;;;;;5034094;28;20236;-61
2023/10/28 04:05:13;;;;;;;14.33;13.83;;;12.80;99.90;;;;;;5034012;28;20232;-60
2023/10/28 04:07:40;;;;;;;14.57;14.07;;;12.80;99.90;;;;;;5034419;28;20212;-62
2023/10/28 04:10:08;;;;;;;15.00;14.43;;;12.80;99.90;;;;;;5034308;28;20208;-61
2023/10/28 04:12:36;;;;;;;15.70;15.10;;;12.80;99.90;;;;;;5034215;28;20216;-61
2023/10/28 04:15:05;;;;;;;15.63;15.03;;;12.80;99.90;;;;;;5034448;28;20212;-60
2023/10/28 04:17:32;;;;;;;16.33;15.73;;;12.80;99.90;;;;;;5034308;28;20370;-62
2023/10/28 04:19:59;;;;;;;14.20;13.70;;;12.80;99.90;;;;;;5033982;28;20213;-60
2023/10/28 04:22:26;;;;;;;14.83;14.33;;;12.80;99.90;;;;;;5033674;28;20212;-62
2023/10/28 04:24:53;;;;;;;15.13;14.63;;;12.80;99.90;;;;;;5034030;28;20312;-61
2023/10/28 04:27:19;;;;;;;15.07;14.57;;;12.80;99.90;;;;;;5034070;28;20243;-61
2023/10/28 04:29:46;;;;;;;14.80;14.30;;;12.70;99.90;;;;;;5034193;28;20215;-60
2023/10/28 04:32:17;;;;;;;14.50;14.00;;;12.60;99.90;;;;;;5033637;28;20219;-60
2023/10/28 04:34:44;;;;;;;14.70;14.17;;;12.60;99.90;;;;;;5034002;28;20243;-60
2023/10/28 04:37:11;;;;;;;15.33;14.83;;;12.60;99.90;;;;;;5033858;28;20212;-61
2023/10/28 04:39:38;;;;;;;16.73;16.13;;;12.50;99.90;;;;;;5033710;28;20262;-60
2023/10/28 04:42:05;;;;;;;17.10;16.50;;;12.50;99.90;;;;;;5033522;28;20698;-62
2023/10/28 04:44:32;;;;;;;17.03;16.43;;;12.50;99.90;;;;;;5033713;28;20228;-60
2023/10/28 04:47:01;;;;;;;17.03;16.43;;;12.50;99.90;;;;;;5032681;28;20232;-61
2023/10/28 04:49:29;;;;;;;17.97;17.37;;;12.50;99.90;;;;;;5033684;28;20204;-60
2023/10/28 04:51:56;;;;;;;16.80;16.20;;;12.50;99.90;;;;;;5033432;28;20212;-61
2023/10/28 04:54:23;;;;;;;17.90;17.30;;;12.50;99.90;;;;;;5033421;28;20232;-60
2023/10/28 04:56:49;;;;;;;17.00;16.40;;;12.50;99.90;;;;;;5033779;28;20213;-61
2023/10/28 04:59:16;;;;;;;16.77;16.17;;;12.50;99.90;;;;;;5033862;28;20274;-61
2023/10/28 05:01:43;;;;;;;16.50;15.90;;;12.40;99.90;;;;;;5033153;28;20225;-61
2023/10/28 05:04:10;;;;;;;15.87;15.37;;;12.40;99.90;;;;;;5033909;28;20661;-61
2023/10/28 05:06:38;;;;;;;16.57;15.97;;;12.30;99.90;;;;;;5033504;28;20260;-61
2023/10/28 05:09:05;;;;;;;15.90;15.40;;;12.40;99.90;;;;;;5033624;28;20225;-60
2023/10/28 05:11:31;;;;;;;15.10;14.60;;;12.30;99.90;;;;;;5033127;28;20235;-60
2023/10/28 05:13:58;;;;;;;15.73;15.23;;;12.30;99.90;;;;;;5033278;28;20232;-60
2023/10/28 05:16:25;;;;;;;14.97;14.47;;;12.30;99.90;;;;;;5033439;28;20212;-60
2023/10/28 05:18:51;;;;;;;15.00;14.50;;;12.30;99.90;;;;;;5033510;28;20208;-60
2023/10/28 05:21:18;;;;;;;14.33;13.83;;;12.30;99.90;;;;;;5032978;28;20209;-60
2023/10/28 05:23:46;;;;;;;14.43;13.90;;;12.30;99.90;;;;;;5032992;28;20224;-60
2023/10/28 05:26:12;;;;;;;13.67;13.20;;;12.30;99.90;;;;;;5040048;28;20228;-62
2023/10/28 05:28:39;;;;;;;14.00;13.50;;;12.20;99.90;;;;;;5036510;28;20216;-60
2023/10/28 05:31:06;;;;;;;14.00;13.50;;;12.20;99.90;;;;;;5035150;28;20213;-60
2023/10/28 05:33:33;;;;;;;14.33;13.83;;;12.20;99.90;;;;;;5041675;28;20278;-61
2023/10/28 05:35:59;;;;;;;13.77;13.27;;;12.20;99.90;;;;;;5033922;28;20209;-62
2023/10/28 05:38:26;;;;;;;14.20;13.70;;;12.20;99.90;;;;;;5033482;28;20216;-62
2023/10/28 05:40:54;;;;;;;14.27;13.77;;;12.20;99.90;;;;;;5033195;28;20231;-61
2023/10/28 05:43:21;;;;;;;13.83;13.33;;;12.20;99.90;;;;;;5032549;28;20237;-61
2023/10/28 05:45:48;;;;;;;14.73;14.23;;;12.20;99.90;;;;;;5032908;28;20228;-61
2023/10/28 05:48:15;;;;;;;15.00;14.50;;;12.20;99.90;;;;;;5032439;28;20205;-61
2023/10/28 05:50:41;;;;;;;15.20;14.50;;;12.20;99.90;;;;;;5032406;28;20212;-62
2023/10/28 05:53:08;;;;;;;14.70;14.20;;;12.20;99.90;;;;;;5032048;28;20731;-61
2023/10/28 05:55:35;;;;;;;14.95;14.45;;;12.30;99.90;;;;;;5032624;28;20231;-66
2023/10/28 05:58:05;;;;;;;15.87;15.27;;;12.30;99.90;;;;;;5032122;28;20324;-65
2023/10/28 06:00:31;;;;;;;15.33;14.83;;;12.30;99.90;;;;;;5031531;28;20235;-66
2023/10/28 06:02:58;;;;;;;16.10;15.53;;;12.30;99.90;;;;;;5032022;28;20247;-63
2023/10/28 06:05:25;;;;;;;15.63;15.10;;;12.30;99.90;;;;;;5032168;28;20224;-65
2023/10/28 06:07:52;;;;;;;15.97;15.47;;;12.40;99.90;;;;;;5032507;28;20259;-64
2023/10/28 06:10:18;;;;;;;16.20;15.60;;;12.50;99.90;;;;;;5032508;28;20205;-65
2023/10/28 06:12:45;;;;;;;16.10;15.53;;;12.50;99.90;;;;;;5032135;28;20228;-65
2023/10/28 06:15:14;;;;;;;15.97;15.43;;;12.50;99.90;;;;;;5031943;28;20689;-63
2023/10/28 06:17:40;;;;;;;16.87;16.17;;;12.50;99.90;;;;;;5032100;28;20236;-65
2023/10/28 06:20:08;;;;;;;16.40;15.80;;;12.50;99.90;;;;;;5031721;28;20209;-64
2023/10/28 06:22:35;;;;;;;15.50;14.90;;;12.50;99.90;;;;;;5031617;28;20205;-65
2023/10/28 06:25:04;;;;;;;16.20;15.70;;;12.50;99.90;;;;;;5032016;28;20818;-65
2023/10/28 06:27:31;;;;;;;14.27;13.77;;;12.50;99.90;;;;;;5032384;28;20578;-64
2023/10/28 06:29:57;;;;;;;15.93;15.37;;;12.50;99.90;;;;;;5033571;28;20213;-65
2023/10/28 06:32:27;;;;;;;15.33;14.83;;;12.40;99.90;;;;;;5033949;28;20861;-65
2023/10/28 06:34:54;;;;;;;15.97;15.47;;;12.40;99.90;;;;;;5032906;28;20220;-66
2023/10/28 06:37:21;;;;;;;17.33;16.73;;;12.50;99.90;;;;;;5033915;28;20208;-65
2023/10/28 06:39:48;;;;;;;16.90;16.30;;;12.40;99.90;;;;;;5032220;28;20244;-66
2023/10/28 06:42:15;;;;;;;16.10;15.50;;;12.40;99.90;;;;;;5031307;28;20697;-63
2023/10/28 06:44:43;;;;;;;17.70;17.10;;;12.40;99.90;;;;;;5031686;28;20590;-63
2023/10/28 06:47:09;;;;;;;18.03;17.43;;;12.40;99.90;;;;;;5032211;28;20311;-67
2023/10/28 06:49:37;;;;;;;17.33;16.73;;;12.40;99.90;;;;;;5031910;28;20215;-65
2023/10/28 06:52:05;;;;;;;15.90;15.30;;;12.40;99.90;;;;;;5030996;28;20219;-66
2023/10/28 06:54:32;;;;;;;15.33;14.80;;;12.40;99.90;;;;;;5031640;28;20251;-65
2023/10/28 06:56:59;;;;;;;16.00;15.40;;;12.40;99.90;;;;;;5032905;28;20228;-64
2023/10/28 06:59:26;;;;;;;15.93;15.33;;;12.30;99.90;;;;;;5032859;28;20272;-65
2023/10/28 07:01:53;;;;;;;15.30;14.70;;;12.30;99.90;;;;;;5033351;28;20223;-66
2023/10/28 07:04:22;;;;;;;16.40;15.80;;;12.30;99.90;;;;;;5032927;28;20232;-65
2023/10/28 07:06:50;;;;;;;15.70;15.10;;;12.30;99.90;;;;;;5032286;28;20232;-64
2023/10/28 07:09:18;;;;;;;14.67;14.17;;;12.30;99.90;;;;;;5031830;28;20282;-66
2023/10/28 07:11:44;;;;;;;16.60;16.00;;;12.30;99.90;;;;;;5033001;28;20220;-66
2023/10/28 07:14:11;;;;;;;15.87;15.37;;;12.30;99.90;;;;;;5031255;28;20251;-64
2023/10/28 07:16:38;;;;;;;16.17;15.57;;;12.40;99.90;;;;;;5032183;28;20212;-64
2023/10/28 07:19:05;;;;;;;15.70;15.10;;;12.40;99.90;;;;;;5032285;28;20216;-63
2023/10/28 07:21:31;;;;;;;15.90;15.37;;;12.40;99.90;;;;;;5031918;28;20213;-64
2023/10/28 07:24:00;;;;;;;17.67;17.07;;;12.50;99.90;;;;;;5031564;28;20239;-65
2023/10/28 07:26:29;;;;;;;16.63;16.03;;;12.50;99.90;;;;;;5030692;28;20331;-65
2023/10/28 07:28:56;;;;;;;16.03;15.43;;;12.70;99.90;;;;;;5026281;28;20524;-65
2023/10/28 07:31:23;;;;;;;16.43;15.83;;;12.80;99.90;;;;;;5027529;28;20205;-67
2023/10/28 07:33:49;;;;;;;17.03;16.43;;;12.90;99.90;;;;;;5029189;28;20230;-64
2023/10/28 07:36:16;;;;;;;15.67;15.07;;;12.90;99.90;;;;;;5029710;28;20208;-65
2023/10/28 07:38:43;;;;;;;15.13;14.63;;;13.00;99.90;;;;;;5031303;28;20231;-64
2023/10/28 07:41:11;;;;;;;15.60;15.03;;;13.10;99.90;;;;;;5031639;28;20204;-68
2023/10/28 07:43:38;;;;;;;15.07;14.57;;;13.20;99.90;;;;;;5030754;28;20743;-64
2023/10/28 07:46:05;;;;;;;13.93;13.43;;;13.40;99.90;;;;;;5026644;28;20553;-65
2023/10/28 07:48:32;;;;;;;13.63;13.13;;;13.60;99.90;;;;;;5031405;28;20280;-64
2023/10/28 07:50:59;;;;;;;12.20;11.80;;;13.80;99.90;;;;;;5031917;28;20204;-65
2023/10/28 07:53:27;;;;;;;12.97;12.47;;;14.00;99.90;;;;;;5035103;28;20574;-65
2023/10/28 07:55:55;;;;;;;13.57;13.07;;;14.10;99.90;;;;;;5033973;28;20201;-66
2023/10/28 07:58:23;;;;;;;12.43;12.03;;;14.20;99.90;;;;;;5041605;28;20215;-65
2023/10/28 08:00:51;;;;;;;12.40;12.00;;;14.40;99.90;;;;;;5037297;28;21109;-64
2023/10/28 08:03:18;;;;;;;15.52;14.93;;;14.50;99.90;;;;;;5038066;28;20232;-64
2023/10/28 08:05:44;;;;;;;14.00;13.50;;;14.60;99.90;;;;;;5030868;28;20197;-66
2023/10/28 08:08:11;;;;;;;13.90;13.40;;;14.70;99.90;;;;;;5031435;28;20241;-65
2023/10/28 08:10:40;;;;;;;13.43;12.93;;;14.80;99.90;;;;;;5030285;28;20204;-64
2023/10/28 08:13:07;;;;;;;12.87;12.37;;;14.90;99.90;;;;;;5030311;28;20228;-65
2023/10/28 08:15:37;;;;;;;13.57;13.07;;;15.10;99.90;;;;;;5030250;28;20208;-63
2023/10/28 08:18:04;;;;;;;13.27;12.77;;;15.10;99.90;;;;;;5032037;28;20205;-64
2023/10/28 08:20:30;;;;;;;13.37;12.87;;;15.00;99.90;;;;;;5031244;28;20358;-64
2023/10/28 08:22:57;;;;;;;12.15;11.75;;;15.00;99.90;;;;;;5032562;28;20733;-64
2023/10/28 08:25:24;;;;;;;12.80;12.40;;;14.90;99.90;;;;;;5034584;28;20209;-65
2023/10/28 08:27:52;;;;;;;12.30;11.80;;;14.90;99.90;;;;;;5033880;28;20256;-65
2023/10/28 08:30:20;;;;;;;13.20;12.70;;;14.90;99.90;;;;;;5034475;28;20295;-66
2023/10/28 08:32:48;;;;;;;12.83;12.43;;;15.00;99.90;;;;;;5034238;28;20228;-66
2023/10/28 08:35:15;;;;;;;13.13;12.63;;;15.00;99.90;;;;;;5034134;28;20270;-64
2023/10/28 08:37:41;;;;;;;13.23;12.73;;;15.10;99.90;;;;;;5034503;28;20201;-64
2023/10/28 08:40:11;;;;;;;12.68;12.27;;;15.10;99.90;;;;;;5034174;28;20216;-64
2023/10/28 08:42:38;;;;;;;12.70;12.30;;;15.10;99.90;;;;;;5034235;28;20208;-65
2023/10/28 08:45:08;;;;;;;13.30;12.80;;;15.30;99.90;;;;;;5034091;28;20243;-63
2023/10/28 08:47:38;;;;;;;12.77;12.27;;;15.40;99.90;;;;;;5033911;28;20838;-65
2023/10/28 08:50:07;;;;;;;12.47;12.07;;;15.50;99.90;;;;;;5034392;28;20232;-64
2023/10/28 08:52:37;;;;;;;11.70;11.30;;;15.60;99.90;;;;;;5033849;28;20204;-64
2023/10/28 08:55:04;;;;;;;12.10;11.70;;;15.60;99.90;;;;;;5033957;28;20212;-64
2023/10/28 08:57:34;;;;;;;12.00;11.60;;;15.60;99.90;;;;;;5034376;28;20232;-68
2023/10/28 09:00:02;;;;;;;12.50;12.00;;;15.70;99.90;;;;;;5034274;28;20248;-65
2023/10/28 09:02:32;;;;;;;12.30;11.90;;;15.80;99.90;;;;;;5035724;28;20709;-64
2023/10/28 09:04:59;;;;;;;12.40;11.80;;;15.80;99.90;;;;;;5034230;28;20220;-65
2023/10/28 09:07:27;;;;;;;14.75;14.15;;;15.90;99.90;;;;;;5043846;28;20224;-65
2023/10/28 09:09:59;;;;;;;12.17;11.77;;;15.90;99.90;;;;;;5045748;28;20213;-65
2023/10/28 09:12:25;;;;;;;12.67;12.27;;;15.90;99.90;;;;;;5044544;28;20218;-65
2023/10/28 09:14:52;;;;;;;12.60;12.20;;;16.00;99.90;;;;;;5045449;28;20299;-65
2023/10/28 09:17:20;;;;;;;12.40;12.00;;;16.00;99.90;;;;;;5042940;28;20205;-64
2023/10/28 09:19:47;;;;;;;12.30;11.90;;;16.10;99.90;;;;;;5041854;28;20376;-65
2023/10/28 09:22:14;;;;;;;12.40;12.00;;;16.10;99.90;;;;;;5033341;28;20239;-64
2023/10/28 09:24:46;;;;;;;12.77;12.37;;;16.20;99.90;;;;;;5035569;28;20656;-64
2023/10/28 09:27:12;;;;;;;11.70;11.30;;;16.20;99.90;;;;;;5034730;28;20221;-64
2023/10/28 09:29:41;;;;;;;12.07;11.67;;;16.10;99.90;;;;;;5034536;28;20220;-65
2023/10/28 09:32:09;;;;;;;11.53;11.07;;;16.30;99.90;;;;;;5035589;28;20219;-64
2023/10/28 09:34:35;;;;;;;11.70;11.30;;;16.30;99.90;;;;;;5033249;28;20229;-65
2023/10/28 09:37:04;;;;;;;11.70;11.30;;;16.40;99.90;;;;;;5033620;28;20209;-65
2023/10/28 09:39:33;;;;;;;12.17;11.73;;;16.40;99.90;;;;;;5033067;28;20212;-64
2023/10/28 09:42:01;;;;;;;11.75;11.35;;;16.40;99.90;;;;;;5032978;28;20972;-65
2023/10/28 09:44:28;;;;;;;11.63;11.23;;;16.40;99.90;;;;;;5032643;28;20232;-64
2023/10/28 09:47:00;;;;;;;12.10;11.70;;;16.50;99.90;;;;;;5032460;28;20235;-65
2023/10/28 09:49:29;;;;;;;12.07;11.67;;;16.50;99.90;;;;;;5033188;28;20219;-65
2023/10/28 09:51:59;;;;;;;12.47;12.07;;;16.60;99.90;;;;;;5033778;28;20267;-65
2023/10/28 09:54:30;;;;;;;12.50;12.10;;;16.70;99.90;;;;;;5032943;28;20252;-65
2023/10/28 09:57:01;;;;;;;13.27;12.77;;;16.80;99.90;;;;;;5032922;28;20563;-64
2023/10/28 09:59:31;;;;;;;12.70;12.20;;;16.90;99.90;;;;;;5032371;28;20299;-63
2023/10/28 10:02:13;;;;;;;13.23;12.73;;;17.00;99.90;;;;;;5032298;28;20212;-65
2023/10/28 10:04:43;;;;;;;13.17;12.67;;;17.10;99.90;;;;;;5032240;28;20598;-64
2023/10/28 10:07:10;;;;;;;12.90;12.40;;;17.10;99.90;;;;;;5032620;28;20240;-64
2023/10/28 10:09:47;;;;;;;12.90;12.40;;;17.10;99.90;;;;;;5031287;28;20216;-64
2023/10/28 10:12:15;;;;;;;13.37;12.87;;;17.20;99.90;;;;;;5031404;28;20218;-64
2023/10/28 10:14:46;;;;;;;13.20;12.70;;;17.20;99.90;;;;;;5031241;28;20255;-64
2023/10/28 10:17:22;;;;;;;13.60;13.10;;;17.30;99.90;;;;;;5032000;28;20205;-63
2023/10/28 10:19:50;;;;;;;13.87;13.37;;;17.40;99.90;;;;;;5032130;28;20220;-65
2023/10/28 10:22:17;;;;;;;13.48;12.98;;;17.50;99.90;;;;;;5032037;28;20216;-65
2023/10/28 10:24:50;;;;;;;13.27;12.77;;;17.60;99.90;;;;;;5031346;28;20713;-65
2023/10/28 10:27:34;;;;;;;13.23;12.73;;;17.60;99.90;;;;;;5031497;28;20319;-64
2023/10/28 10:30:06;;;;;;;12.23;11.83;;;17.60;99.90;;;;;;5031681;28;20315;-64
2023/10/28 10:32:41;;;;;;;12.40;12.00;;;17.50;99.90;;;;;;5028173;28;20295;-63
2023/10/28 10:35:12;;;;;;;12.10;11.63;;;17.40;99.90;;;;;;5031654;28;20239;-65
2023/10/28 10:37:38;;;;;;;12.70;12.20;;;17.30;99.90;;;;;;5031960;28;20204;-66
2023/10/28 10:40:08;;;;;;;13.63;13.13;;;17.20;99.90;;;;;;5031635;28;20299;-63
2023/10/28 10:42:38;;;;;;;13.70;13.20;;;17.10;99.90;;;;;;5031388;28;20262;-64
2023/10/28 10:45:06;;;;;;;13.60;13.10;;;17.00;99.90;;;;;;5030777;28;20279;-64
2023/10/28 10:47:33;;;;;;;13.70;13.20;;;16.90;99.90;;;;;;5031159;28;20228;-67
2023/10/28 10:50:01;;;;;;;13.67;13.17;;;16.80;99.90;;;;;;5032700;28;20216;-67
2023/10/28 10:52:28;;;;;;;13.80;13.30;;;16.80;99.90;;;;;;5031150;28;20212;-65
2023/10/28 10:55:02;;;;;;;13.33;12.83;;;16.80;99.90;;;;;;5031592;28;20215;-67
2023/10/28 10:57:30;;;;;;;13.37;12.87;;;16.70;99.90;;;;;;5031210;28;20277;-65
2023/10/28 10:59:58;;;;;;;13.82;13.32;;;16.60;99.90;;;;;;5034814;28;20259;-65
2023/10/28 11:02:26;;;;;;;13.40;12.90;;;16.60;99.90;;;;;;5036077;28;20228;-65
2023/10/28 11:04:53;;;;;;;13.37;12.87;;;16.60;99.90;;;;;;5034955;28;20209;-64
2023/10/28 11:07:19;;;;;;;13.23;12.73;;;16.50;99.90;;;;;;5032152;28;20232;-65
2023/10/28 11:09:46;;;;;;;12.67;12.23;;;16.50;99.90;;;;;;5031612;28;20213;-67
2023/10/28 11:12:13;;;;;;;12.37;11.97;;;16.40;99.90;;;;;;5031187;28;20220;-65
2023/10/28 11:14:41;;;;;;;12.50;12.10;;;16.40;99.90;;;;;;5030821;28;20232;-66
2023/10/28 11:17:09;;;;;;;11.82;11.43;;;16.40;99.90;;;;;;5031430;28;20233;-66
2023/10/28 11:19:36;;;;;;;11.93;11.53;;;16.40;99.90;;;;;;5031387;28;20223;-65
2023/10/28 11:22:03;;;;;;;12.17;11.77;;;16.40;99.90;;;;;;5031605;28;20209;-67
2023/10/28 11:24:35;;;;;;;11.87;11.40;;;16.40;99.90;;;;;;5030967;28;20232;-67
2023/10/28 11:27:02;;;;;;;11.90;11.50;;;16.50;99.90;;;;;;5030960;28;20236;-65
2023/10/28 11:29:30;;;;;;;11.73;11.32;;;16.40;99.90;;;;;;5031516;28;20679;-66
2023/10/28 11:32:06;;;;;;;12.00;11.50;;;16.30;99.90;;;;;;5034305;28;20562;-67
2023/10/28 11:34:39;;;;;;;12.17;11.77;;;16.30;99.90;;;;;;5032497;28;20733;-63
2023/10/28 11:37:08;;;;;;;11.77;11.37;;;16.30;99.90;;;;;;5032242;28;20208;-65
2023/10/28 11:39:35;;;;;;;12.17;11.67;;;16.30;99.90;;;;;;5031842;28;20675;-66
2023/10/28 11:42:09;;;;;;;11.97;11.57;;;16.30;99.90;;;;;;5031821;28;20587;-66
2023/10/28 11:44:36;;;;;;;11.87;11.47;;;16.30;99.90;;;;;;5032149;28;20707;-65
2023/10/28 11:47:03;;;;;;;11.70;11.30;;;16.40;99.90;;;;;;5037742;28;20212;-69
2023/10/28 11:49:30;;;;;;;12.00;11.50;;;16.40;99.90;;;;;;5043472;28;20200;-66
2023/10/28 11:51:58;;;;;;;11.83;11.43;;;16.30;99.90;;;;;;5044995;28;20223;-63
2023/10/28 11:54:24;;;;;;;12.07;11.60;;;16.30;99.90;;;;;;5045006;28;20777;-63
2023/10/28 11:56:51;;;;;;;12.23;11.73;;;16.30;99.90;;;;;;5046267;28;20213;-66
2023/10/28 11:59:18;;;;;;;12.23;11.73;;;16.20;99.90;;;;;;5034898;28;20590;-65
2023/10/28 12:01:44;;;;;;;11.97;11.57;;;16.20;99.90;;;;;;5035492;28;20228;-67
2023/10/28 12:04:11;;;;;;;12.00;11.60;;;16.30;99.90;;;;;;5034990;28;20235;-65
2023/10/28 12:06:38;;;;;;;12.13;11.73;;;16.30;99.90;;;;;;5035447;28;20652;-65
2023/10/28 12:09:11;;;;;;;12.10;11.70;;;16.40;99.90;;;;;;5034872;28;20224;-62
2023/10/28 12:11:38;;;;;;;12.10;11.70;;;16.40;99.90;;;;;;5034440;28;20213;-65
2023/10/28 12:14:07;;;;;;;12.10;11.70;;;16.50;99.90;;;;;;5034430;28;20256;-65
2023/10/28 12:16:35;;;;;;;12.13;11.73;;;16.50;99.90;;;;;;5034376;28;20224;-66
2023/10/28 12:19:02;;;;;;;12.03;11.63;;;16.60;99.90;;;;;;5034175;28;20205;-66
2023/10/28 12:21:30;;;;;;;12.00;11.60;;;16.60;99.90;;;;;;5034189;28;20281;-65
2023/10/28 12:23:57;;;;;;;12.90;12.40;;;16.70;99.90;;;;;;5034295;28;20275;-65
2023/10/28 12:26:25;;;;;;;12.37;11.87;;;16.70;99.90;;;;;;5034409;28;20682;-66
2023/10/28 12:28:53;;;;;;;12.63;12.13;;;16.70;99.90;;;;;;5038723;28;20255;-66
2023/10/28 12:31:20;;;;;;;12.00;11.60;;;16.70;99.90;;;;;;5038958;28;20243;-65